Time;durP1;ratioP1;P1;durP2;ratioP2;P2;SDS_P1;SDS_P2;PMS_P1;PMS_P2;Temp;Humidity;BMP_temperature;BMP_pressure;BME280_temperature;BME280_humidity;BME280_pressure;Samples;Min_cycle;Max_cycle;Signal;HPM_P1;HPM_P2
2022/05/30 00:00:16;;;;;;;10.15;2.72;;;12.70;99.90;;;;;;5061235;28;20025;-72
2022/05/30 00:02:42;;;;;;;4.80;2.50;;;12.70;99.90;;;;;;5060225;28;20539;-72
2022/05/30 00:05:24;;;;;;;5.20;2.72;;;12.70;99.90;;;;;;5061709;28;20155;-72
2022/05/30 00:07:50;;;;;;;3.97;2.60;;;12.70;99.90;;;;;;5062121;28;20090;-72
2022/05/30 00:10:17;;;;;;;5.68;2.58;;;12.70;99.90;;;;;;5062052;28;20381;-71
2022/05/30 00:12:43;;;;;;;7.57;2.80;;;12.70;99.90;;;;;;5059939;28;20384;-72
2022/05/30 00:15:13;;;;;;;5.95;2.70;;;12.70;99.90;;;;;;5063673;28;20036;-73
2022/05/30 00:17:38;;;;;;;7.72;3.10;;;12.70;99.90;;;;;;5061295;28;20028;-71
2022/05/30 00:20:06;;;;;;;8.35;2.90;;;12.80;99.90;;;;;;5063124;28;20036;-71
2022/05/30 00:22:31;;;;;;;8.35;3.15;;;12.70;99.90;;;;;;5060057;28;20103;-72
2022/05/30 00:24:57;;;;;;;8.18;2.70;;;12.70;99.90;;;;;;5062702;28;20492;-71
2022/05/30 00:27:22;;;;;;;8.02;3.47;;;12.80;99.90;;;;;;5067351;28;20059;-74
2022/05/30 00:29:48;;;;;;;8.27;3.15;;;12.70;99.90;;;;;;5075559;28;20431;-71
2022/05/30 00:32:14;;;;;;;6.43;2.83;;;12.60;99.90;;;;;;5075294;28;20653;-72
2022/05/30 00:34:40;;;;;;;6.65;2.90;;;12.60;99.90;;;;;;5063499;28;20037;-71
2022/05/30 00:37:06;;;;;;;5.63;2.78;;;12.70;99.90;;;;;;5067600;28;20468;-72
2022/05/30 00:39:32;;;;;;;6.63;2.65;;;12.70;99.90;;;;;;5074108;28;20050;-71
2022/05/30 00:42:19;;;;;;;5.50;2.60;;;12.70;99.90;;;;;;5075540;28;20469;-71
2022/05/30 00:44:48;;;;;;;7.38;3.20;;;12.80;99.90;;;;;;5075441;28;20161;-71
2022/05/30 00:47:14;;;;;;;9.32;2.67;;;12.80;99.90;;;;;;5075802;28;20411;-71
2022/05/30 00:49:43;;;;;;;9.93;2.80;;;12.70;99.90;;;;;;5075224;28;20064;-73
2022/05/30 00:52:17;;;;;;;7.25;2.83;;;12.70;99.90;;;;;;5075299;28;20040;-71
2022/05/30 00:55:09;;;;;;;5.78;3.13;;;12.70;99.90;;;;;;5059260;28;20029;-71
2022/05/30 00:57:37;;;;;;;8.50;3.03;;;12.70;99.90;;;;;;5060007;28;20025;-71
2022/05/30 01:00:11;;;;;;;7.22;3.13;;;12.70;99.90;;;;;;5073811;28;20054;-71
2022/05/30 01:02:39;;;;;;;9.93;3.45;;;12.70;99.90;;;;;;5074911;28;20034;-70
2022/05/30 01:07:52;;;;;;;7.45;3.50;;;12.50;99.90;;;;;;5055498;28;20128;-71
2022/05/30 01:10:21;;;;;;;7.65;3.15;;;12.60;99.90;;;;;;5068066;28;20485;-71
2022/05/30 01:12:57;;;;;;;10.43;3.08;;;12.60;99.90;;;;;;5075197;28;20461;-71
2022/05/30 01:15:27;;;;;;;7.38;3.30;;;12.60;99.90;;;;;;5075018;28;20037;-71
2022/05/30 01:18:01;;;;;;;8.55;3.00;;;12.50;99.90;;;;;;5061107;28;20116;-71
2022/05/30 01:20:52;;;;;;;7.88;3.08;;;12.40;99.90;;;;;;5064123;28;20028;-71
2022/05/30 01:23:35;;;;;;;8.45;3.50;;;12.40;99.90;;;;;;5074570;28;20028;-70
2022/05/30 01:26:39;;;;;;;6.82;3.20;;;12.40;99.90;;;;;;5074209;28;20028;-71
2022/05/30 01:29:11;;;;;;;;;;;12.40;99.90;;;;;;5075053;28;20037;-71
2022/05/30 01:31:37;;;;;;;11.05;3.58;;;12.50;99.90;;;;;;5074537;28;19919;-71
2022/05/30 01:34:03;;;;;;;11.48;3.95;;;12.50;99.90;;;;;;5071317;28;20033;-70
2022/05/30 01:36:32;;;;;;;8.13;3.65;;;12.50;99.90;;;;;;5054173;28;20107;-72
2022/05/30 01:38:58;;;;;;;7.43;3.67;;;12.50;99.90;;;;;;5058040;28;20366;-71
2022/05/30 01:41:23;;;;;;;6.85;3.60;;;12.50;99.90;;;;;;5074611;28;20050;-71
2022/05/30 01:43:49;;;;;;;8.18;3.70;;;12.50;99.90;;;;;;5071713;28;20516;-71
2022/05/30 01:46:19;;;;;;;7.85;3.35;;;12.50;99.90;;;;;;5065590;28;20029;-71
2022/05/30 01:48:47;;;;;;;7.38;4.30;;;12.50;99.90;;;;;;5054560;28;20104;-70
2022/05/30 01:51:15;;;;;;;5.55;4.07;;;12.40;99.90;;;;;;5051924;28;20044;-71
2022/05/30 01:53:41;;;;;;;9.82;3.58;;;12.50;99.90;;;;;;5054526;28;20071;-71
2022/05/30 01:56:06;;;;;;;9.07;4.30;;;12.40;99.90;;;;;;5054184;28;20061;-71
2022/05/30 01:58:35;;;;;;;5.28;3.28;;;12.30;99.90;;;;;;5059676;28;20029;-71
2022/05/30 02:01:13;;;;;;;9.57;4.00;;;12.40;99.90;;;;;;5070950;28;20114;-71
2022/05/30 02:03:39;;;;;;;5.05;3.85;;;12.30;99.90;;;;;;5057224;28;20071;-71
2022/05/30 02:06:05;;;;;;;9.45;4.03;;;12.30;99.90;;;;;;5074005;28;20436;-71
2022/05/30 02:08:30;;;;;;;8.88;3.60;;;12.30;99.90;;;;;;5059495;28;20409;-70
2022/05/30 02:10:56;;;;;;;9.95;3.70;;;12.30;99.90;;;;;;5053401;28;20048;-71
2022/05/30 02:13:22;;;;;;;11.45;4.53;;;12.30;99.90;;;;;;5053146;28;20037;-71
2022/05/30 02:18:32;;;;;;;6.15;3.45;;;12.20;99.90;;;;;;5053648;28;20441;-71
2022/05/30 02:20:57;;;;;;;9.50;4.10;;;12.20;99.90;;;;;;5062136;28;20063;-71
2022/05/30 02:23:23;;;;;;;7.60;4.05;;;12.10;99.90;;;;;;5060639;28;20036;-71
2022/05/30 02:25:49;;;;;;;7.57;4.00;;;12.10;99.90;;;;;;5062683;28;20032;-70
2022/05/30 02:28:15;;;;;;;8.73;3.90;;;12.10;99.90;;;;;;5073653;28;20032;-71
2022/05/30 02:30:41;;;;;;;9.63;3.55;;;12.10;99.90;;;;;;5073368;28;20044;-70
2022/05/30 02:38:35;;;;;;;10.48;4.20;;;11.90;99.90;;;;;;5070552;28;20046;-70
2022/05/30 02:41:01;;;;;;;8.13;4.60;;;12.00;99.90;;;;;;5073300;28;20016;-71
2022/05/30 02:43:27;;;;;;;4.57;4.03;;;11.90;99.90;;;;;;5059812;28;20108;-71
2022/05/30 02:45:52;;;;;;;6.22;3.80;;;11.90;99.90;;;;;;5060045;28;20047;-70
2022/05/30 02:48:18;;;;;;;7.68;3.83;;;11.90;99.90;;;;;;5072755;28;20135;-71
2022/05/30 02:50:45;;;;;;;15.15;4.47;;;11.90;99.90;;;;;;5072926;28;20040;-71
2022/05/30 02:53:11;;;;;;;11.38;4.45;;;11.90;99.90;;;;;;5073387;28;20029;-71
2022/05/30 02:55:37;;;;;;;9.63;4.13;;;11.90;99.90;;;;;;5067608;28;20044;-70
2022/05/30 02:58:03;;;;;;;7.53;4.40;;;11.80;99.90;;;;;;5050944;28;20037;-70
2022/05/30 03:00:29;;;;;;;5.32;3.97;;;11.80;99.90;;;;;;5053058;28;20465;-73
2022/05/30 03:02:55;;;;;;;5.15;4.40;;;11.80;99.90;;;;;;5063450;28;20024;-70
2022/05/30 03:05:21;;;;;;;10.98;4.38;;;11.80;99.90;;;;;;5073273;28;20504;-71
2022/05/30 03:07:47;;;;;;;6.47;4.05;;;11.80;99.90;;;;;;5072663;28;20043;-70
2022/05/30 03:10:13;;;;;;;7.35;4.50;;;11.80;99.90;;;;;;5072751;28;20435;-70
2022/05/30 03:12:38;;;;;;;7.32;4.03;;;11.80;99.90;;;;;;5054906;28;20473;-71
2022/05/30 03:15:04;;;;;;;8.45;4.72;;;11.70;99.90;;;;;;5071328;28;20131;-70
2022/05/30 03:17:30;;;;;;;7.07;4.28;;;11.70;99.90;;;;;;5060546;28;20109;-70
2022/05/30 03:19:56;;;;;;;10.10;4.20;;;11.70;99.90;;;;;;5072130;28;20025;-70
2022/05/30 03:22:21;;;;;;;10.13;4.53;;;11.70;99.90;;;;;;5072283;28;20438;-71
2022/05/30 03:24:47;;;;;;;9.43;4.15;;;11.60;99.90;;;;;;5073099;28;20027;-73
2022/05/30 03:27:13;;;;;;;7.13;4.20;;;11.70;99.90;;;;;;5072558;28;20116;-72
2022/05/30 03:29:39;;;;;;;8.70;4.40;;;11.60;99.90;;;;;;5072529;28;20067;-72
2022/05/30 03:32:05;;;;;;;11.15;4.30;;;11.60;99.90;;;;;;5072837;28;20040;-70
2022/05/30 03:34:30;;;;;;;9.68;4.50;;;11.50;99.90;;;;;;5061199;28;20039;-72
2022/05/30 03:36:56;;;;;;;7.90;4.45;;;11.40;99.90;;;;;;5052820;28;20041;-71
2022/05/30 03:39:22;;;;;;;12.32;4.35;;;11.40;99.90;;;;;;5052724;28;20036;-71
2022/05/30 03:41:48;;;;;;;7.70;4.32;;;11.50;99.90;;;;;;5052631;28;20453;-72
2022/05/30 03:44:13;;;;;;;8.60;4.05;;;11.50;99.90;;;;;;5052380;28;20044;-70
2022/05/30 03:46:39;;;;;;;6.95;4.00;;;11.50;99.90;;;;;;5071326;28;20405;-72
2022/05/30 03:49:05;;;;;;;11.38;4.28;;;11.50;99.90;;;;;;5054334;28;20128;-71
2022/05/30 03:51:32;;;;;;;7.00;4.60;;;11.50;99.90;;;;;;5052056;28;20029;-72
2022/05/30 03:53:57;;;;;;;11.90;4.82;;;11.50;99.90;;;;;;5052279;28;20048;-72
2022/05/30 03:56:23;;;;;;;7.40;4.65;;;11.50;99.90;;;;;;5052896;28;20037;-71
2022/05/30 03:58:50;;;;;;;7.60;4.15;;;11.50;99.90;;;;;;5068438;28;20029;-70
2022/05/30 04:01:16;;;;;;;7.00;4.03;;;11.50;99.90;;;;;;5059902;28;20037;-70
2022/05/30 04:03:42;;;;;;;8.95;4.60;;;11.50;99.90;;;;;;5053581;28;20397;-70
2022/05/30 04:06:09;;;;;;;7.28;3.70;;;11.50;99.90;;;;;;5056458;28;20029;-70
2022/05/30 04:08:35;;;;;;;6.13;4.28;;;11.50;99.90;;;;;;5068880;28;20110;-71
2022/05/30 04:11:01;;;;;;;5.70;3.88;;;11.50;99.90;;;;;;5073839;28;20028;-70
2022/05/30 04:13:26;;;;;;;8.85;4.10;;;11.50;99.90;;;;;;5055353;28;20037;-71
2022/05/30 04:15:52;;;;;;;10.40;4.72;;;11.50;99.90;;;;;;5054942;28;20500;-70
2022/05/30 04:18:17;;;;;;;6.88;4.45;;;11.50;99.90;;;;;;5055586;28;20420;-71
2022/05/30 04:20:46;;;;;;;7.38;4.13;;;11.50;99.90;;;;;;5061454;28;20060;-71
2022/05/30 04:23:12;;;;;;;7.70;4.32;;;11.50;99.90;;;;;;5075900;28;20024;-71
2022/05/30 04:25:38;;;;;;;8.77;4.40;;;11.40;99.90;;;;;;5075243;28;20082;-71
2022/05/30 04:28:04;;;;;;;6.88;4.60;;;11.40;99.90;;;;;;5059599;28;20033;-71
2022/05/30 04:30:30;;;;;;;7.88;4.80;;;11.50;99.90;;;;;;5073885;28;20028;-71
2022/05/30 04:32:55;;;;;;;9.35;4.85;;;11.50;99.90;;;;;;5075973;28;20060;-71
2022/05/30 04:35:21;;;;;;;9.55;4.82;;;11.60;99.90;;;;;;5075370;28;20036;-71
2022/05/30 04:37:47;;;;;;;9.85;5.03;;;11.60;99.90;;;;;;5075711;28;20036;-71
2022/05/30 04:40:16;;;;;;;6.85;4.32;;;11.60;99.90;;;;;;5075087;28;20477;-71
2022/05/30 04:42:42;;;;;;;8.20;4.60;;;11.60;99.90;;;;;;5060750;28;20024;-71
2022/05/30 04:45:08;;;;;;;10.52;4.85;;;11.60;99.90;;;;;;5054475;28;20078;-71
2022/05/30 04:47:35;;;;;;;6.85;4.60;;;11.60;99.90;;;;;;5055853;28;20036;-71
2022/05/30 04:50:03;;;;;;;6.18;4.68;;;11.60;99.90;;;;;;5054971;28;20116;-71
2022/05/30 04:52:29;;;;;;;8.60;4.60;;;11.60;99.90;;;;;;5054543;28;20027;-71
2022/05/30 04:54:55;;;;;;;9.38;5.18;;;11.50;99.90;;;;;;5055327;28;20029;-71
2022/05/30 04:57:21;;;;;;;11.38;5.10;;;11.50;99.90;;;;;;5054466;28;20080;-71
2022/05/30 04:59:46;;;;;;;7.25;5.35;;;11.60;99.90;;;;;;5055450;28;20036;-71
2022/05/30 05:02:13;;;;;;;6.65;4.78;;;11.70;99.90;;;;;;5064472;28;20031;-71
2022/05/30 05:04:39;;;;;;;7.65;5.93;;;11.70;99.90;;;;;;5075296;28;20033;-71
2022/05/30 05:07:05;;;;;;;7.55;5.40;;;11.80;99.90;;;;;;5074730;28;20028;-70
2022/05/30 05:09:40;;;;;;;9.60;6.00;;;11.80;99.90;;;;;;5090686;28;20056;-71
2022/05/30 05:12:06;;;;;;;9.93;5.75;;;11.80;99.90;;;;;;5064240;28;20116;-70
2022/05/30 05:14:32;;;;;;;10.35;5.20;;;11.80;99.90;;;;;;5055114;28;20033;-70
2022/05/30 05:16:58;;;;;;;8.73;5.22;;;11.80;99.90;;;;;;5055423;28;20523;-70
2022/05/30 05:19:24;;;;;;;12.70;5.43;;;11.90;99.90;;;;;;5055089;28;20040;-71
2022/05/30 05:21:50;;;;;;;9.65;6.22;;;12.00;99.90;;;;;;5056880;28;20086;-70
2022/05/30 05:24:17;;;;;;;9.10;5.45;;;12.00;99.90;;;;;;5073050;28;20032;-70
2022/05/30 05:26:47;;;;;;;11.07;6.13;;;12.10;99.90;;;;;;5054311;28;20059;-70
2022/05/30 05:29:13;;;;;;;8.70;5.82;;;12.10;99.90;;;;;;5061871;28;20028;-70
2022/05/30 05:31:39;;;;;;;12.82;5.90;;;12.10;99.90;;;;;;5067923;28;20484;-70
2022/05/30 05:34:11;;;;;;;12.35;6.57;;;12.10;99.90;;;;;;5074616;28;20028;-71
2022/05/30 05:36:39;;;;;;;16.23;7.30;;;12.20;99.90;;;;;;5074615;28;20173;-70
2022/05/30 05:39:06;;;;;;;16.02;7.80;;;12.20;99.90;;;;;;5073419;28;20799;-70
2022/05/30 05:41:32;;;;;;;16.35;8.43;;;12.20;99.90;;;;;;5054311;28;20033;-70
2022/05/30 05:43:58;;;;;;;15.82;8.02;;;12.20;99.90;;;;;;5054583;28;20025;-70
2022/05/30 05:46:26;;;;;;;20.88;8.30;;;12.30;99.90;;;;;;5053403;28;20611;-70
2022/05/30 05:48:54;;;;;;;15.93;8.10;;;12.30;99.90;;;;;;5054514;28;20116;-70
2022/05/30 05:51:20;;;;;;;15.27;8.20;;;12.40;99.90;;;;;;5055250;28;20047;-70
2022/05/30 05:53:47;;;;;;;19.98;8.88;;;12.40;99.90;;;;;;5056898;28;20033;-71
2022/05/30 05:56:18;;;;;;;17.45;9.82;;;12.40;99.90;;;;;;5073337;28;20098;-70
2022/05/30 05:58:44;;;;;;;18.35;8.63;;;12.50;99.90;;;;;;5074142;28;20029;-71
2022/05/30 06:01:13;;;;;;;15.50;8.32;;;12.50;99.90;;;;;;5073919;28;20085;-71
2022/05/30 06:03:38;;;;;;;18.92;7.93;;;12.50;99.90;;;;;;5074300;28;20503;-71
2022/05/30 06:06:05;;;;;;;18.48;8.60;;;12.60;99.90;;;;;;5074116;28;20064;-71
2022/05/30 06:08:32;;;;;;;18.00;9.23;;;12.60;99.90;;;;;;5073815;28;20043;-71
2022/05/30 06:11:09;;;;;;;15.60;8.30;;;12.60;99.90;;;;;;5073341;28;20032;-71
2022/05/30 06:13:39;;;;;;;15.27;8.00;;;12.80;99.90;;;;;;5053987;28;20036;-71
2022/05/30 06:16:20;;;;;;;19.67;8.30;;;12.80;99.90;;;;;;5053975;28;20029;-71
2022/05/30 06:18:47;;;;;;;19.60;6.88;;;12.80;99.90;;;;;;5053732;28;20028;-71
2022/05/30 06:21:13;;;;;;;18.05;7.25;;;12.70;99.90;;;;;;5053659;28;20033;-71
2022/05/30 06:23:39;;;;;;;17.70;7.70;;;12.80;99.90;;;;;;5073842;28;20115;-71
2022/05/30 06:26:09;;;;;;;14.38;6.90;;;12.90;99.90;;;;;;5058825;28;20029;-71
2022/05/30 06:28:37;;;;;;;13.27;6.35;;;12.80;99.90;;;;;;5056848;28;20492;-71
2022/05/30 06:31:11;;;;;;;14.60;6.97;;;12.90;99.90;;;;;;5072804;28;20675;-72
2022/05/30 06:33:37;;;;;;;15.95;7.07;;;12.90;99.90;;;;;;5070295;28;20496;-71
2022/05/30 06:36:05;;;;;;;13.65;5.22;;;12.90;99.90;;;;;;5073237;28;20028;-71
2022/05/30 06:38:31;;;;;;;11.43;4.93;;;12.80;99.90;;;;;;5065415;28;20388;-71
2022/05/30 06:40:57;;;;;;;14.45;4.72;;;12.90;99.90;;;;;;5071948;28;20036;-71
2022/05/30 06:43:22;;;;;;;12.32;4.75;;;12.90;99.90;;;;;;5054857;28;20116;-71
2022/05/30 06:45:48;;;;;;;10.75;4.65;;;12.90;99.90;;;;;;5055193;28;20108;-71
2022/05/30 06:48:15;;;;;;;10.18;3.83;;;12.90;99.90;;;;;;5072538;28;20037;-69
2022/05/30 06:50:41;;;;;;;9.93;4.18;;;13.00;99.90;;;;;;5070837;28;20161;-71
2022/05/30 06:53:07;;;;;;;15.80;4.32;;;13.10;99.90;;;;;;5072486;28;20477;-68
2022/05/30 06:55:33;;;;;;;8.10;3.45;;;13.10;99.90;;;;;;5069470;28;20036;-68
2022/05/30 06:58:13;;;;;;;6.05;2.38;;;13.20;99.90;;;;;;5059579;28;20056;-68
2022/05/30 07:00:40;;;;;;;22.50;3.65;;;13.10;99.90;;;;;;5053196;28;20477;-68
2022/05/30 07:03:05;;;;;;;6.45;3.20;;;13.40;99.90;;;;;;5070341;28;20040;-68
2022/05/30 07:05:31;;;;;;;7.55;2.58;;;13.50;99.90;;;;;;5061012;28;20041;-68
2022/05/30 07:07:58;;;;;;;10.23;2.92;;;13.60;99.90;;;;;;5052194;28;20079;-68
2022/05/30 07:10:28;;;;;;;9.98;2.10;;;13.80;99.90;;;;;;5052172;28;20497;-68
2022/05/30 07:12:53;;;;;;;6.60;1.30;;;13.90;99.90;;;;;;5052418;28;20473;-69
2022/05/30 07:15:19;;;;;;;6.55;1.85;;;13.90;99.90;;;;;;5052976;28;20052;-68
2022/05/30 07:17:45;;;;;;;11.32;1.90;;;13.80;99.90;;;;;;5067456;28;20039;-68
2022/05/30 07:20:11;;;;;;;6.70;1.52;;;13.90;99.90;;;;;;5065903;28;20029;-69
2022/05/30 07:22:37;;;;;;;5.32;1.60;;;13.80;99.90;;;;;;5056841;28;20168;-68
2022/05/30 07:25:03;;;;;;;5.13;1.77;;;13.70;99.90;;;;;;5065089;28;20113;-68
2022/05/30 07:27:30;;;;;;;10.13;1.70;;;13.70;99.90;;;;;;5052381;28;20501;-68
2022/05/30 07:29:55;;;;;;;5.68;1.40;;;13.60;99.90;;;;;;5066167;28;20378;-69
2022/05/30 07:32:21;;;;;;;9.60;1.55;;;13.90;99.90;;;;;;5072040;28;20040;-68
2022/05/30 07:34:46;;;;;;;7.57;1.67;;;13.90;99.90;;;;;;5074093;28;20030;-68
2022/05/30 07:37:12;;;;;;;5.15;1.20;;;13.90;99.90;;;;;;5077918;28;20153;-68
2022/05/30 07:39:38;;;;;;;6.60;1.60;;;13.90;99.90;;;;;;5077939;28;20029;-68
2022/05/30 07:42:05;;;;;;;5.18;1.67;;;14.00;99.90;;;;;;5073976;28;20033;-68
2022/05/30 07:44:32;;;;;;;7.65;1.60;;;14.00;99.90;;;;;;5057901;28;20045;-68
2022/05/30 07:46:59;;;;;;;4.45;1.20;;;13.90;99.90;;;;;;5068164;28;20029;-67
2022/05/30 07:49:25;;;;;;;9.52;1.73;;;14.00;99.90;;;;;;5075946;28;20037;-68
2022/05/30 07:51:50;;;;;;;7.65;1.50;;;14.00;99.90;;;;;;5076775;28;20487;-71
2022/05/30 07:54:16;;;;;;;6.82;1.27;;;14.00;99.90;;;;;;5076301;28;20036;-70
2022/05/30 07:56:42;;;;;;;6.72;1.42;;;14.00;99.90;;;;;;5069647;28;20036;-68
2022/05/30 07:59:08;;;;;;;5.43;1.52;;;14.00;99.90;;;;;;5068685;28;20032;-70
2022/05/30 08:01:34;;;;;;;4.72;1.67;;;14.00;99.90;;;;;;5071344;28;20112;-70
2022/05/30 08:04:00;;;;;;;5.40;1.38;;;14.00;99.90;;;;;;5069882;28;20107;-70
2022/05/30 08:06:28;;;;;;;10.63;1.92;;;14.00;99.90;;;;;;5070171;28;20620;-69
2022/05/30 08:08:55;;;;;;;7.13;1.65;;;14.00;99.90;;;;;;5064681;28;20092;-70
2022/05/30 08:11:21;;;;;;;3.00;1.35;;;14.10;99.90;;;;;;5066841;28;20044;-70
2022/05/30 08:13:47;;;;;;;6.05;1.75;;;14.10;99.90;;;;;;5067849;28;20036;-69
2022/05/30 08:16:16;;;;;;;7.72;1.25;;;14.20;99.90;;;;;;5068725;28;20028;-69
2022/05/30 08:18:42;;;;;;;8.18;1.48;;;14.20;99.90;;;;;;5066464;28;20087;-69
2022/05/30 08:21:08;;;;;;;10.10;2.05;;;14.20;99.90;;;;;;5078144;28;20033;-69
2022/05/30 08:23:34;;;;;;;6.32;1.45;;;14.20;99.90;;;;;;5076360;28;20040;-69
2022/05/30 08:26:00;;;;;;;8.43;1.67;;;14.20;99.90;;;;;;5078632;28;20031;-69
2022/05/30 08:28:26;;;;;;;7.70;1.70;;;14.20;99.90;;;;;;5077786;28;20036;-69
2022/05/30 08:30:51;;;;;;;4.82;1.35;;;14.30;99.90;;;;;;5077796;28;20037;-69
2022/05/30 08:33:20;;;;;;;7.18;1.17;;;14.30;99.90;;;;;;5057889;28;20040;-68
2022/05/30 08:35:46;;;;;;;8.15;1.50;;;14.30;99.90;;;;;;5056924;28;20039;-69
2022/05/30 08:38:12;;;;;;;6.75;1.35;;;14.40;99.90;;;;;;5058206;28;20043;-69
2022/05/30 08:43:39;;;;;;;3.20;1.30;;;14.50;99.90;;;;;;5085817;28;20048;-69
2022/05/30 08:46:08;;;;;;;7.57;1.38;;;14.50;99.90;;;;;;5066980;28;20028;-69
2022/05/30 08:48:36;;;;;;;6.47;1.35;;;14.40;99.90;;;;;;5061940;28;20040;-69
2022/05/30 08:51:40;;;;;;;4.80;1.10;;;14.30;99.90;;;;;;5064859;28;20040;-69
2022/05/30 08:54:28;;;;;;;4.70;1.17;;;14.40;99.90;;;;;;5060403;28;20049;-69
2022/05/30 08:56:56;;;;;;;6.07;1.40;;;14.50;99.90;;;;;;5065390;28;20496;-69
2022/05/30 08:59:28;;;;;;;4.28;1.30;;;14.40;99.90;;;;;;5069628;28;20024;-69
2022/05/30 09:01:59;;;;;;;4.63;1.30;;;14.70;99.90;;;;;;5060946;28;20040;-69
2022/05/30 09:04:29;;;;;;;6.25;1.50;;;15.10;99.90;;;;;;5066397;28;20028;-69
2022/05/30 09:07:05;;;;;;;6.47;1.20;;;15.60;99.90;;;;;;5058230;28;20540;-69
2022/05/30 09:09:59;;;;;;;7.38;1.45;;;15.90;99.90;;;;;;5064846;28;20076;-69
2022/05/30 09:12:41;;;;;;;4.53;1.10;;;15.90;99.90;;;;;;5063097;28;20025;-69
2022/05/30 09:15:18;;;;;;;4.70;1.23;;;15.70;99.90;;;;;;5064773;28;20039;-69
2022/05/30 09:18:00;;;;;;;4.40;1.13;;;15.40;99.90;;;;;;5065395;28;20024;-69
2022/05/30 09:20:28;;;;;;;6.18;1.40;;;15.10;99.90;;;;;;5063354;28;20025;-69
2022/05/30 09:22:54;;;;;;;3.30;1.05;;;15.30;99.90;;;;;;5062049;28;20096;-69
2022/05/30 09:28:11;;;;;;;6.45;1.05;;;15.50;99.90;;;;;;5065749;28;20047;-69
2022/05/30 09:30:56;;;;;;;2.53;0.90;;;15.60;99.90;;;;;;5064241;28;20063;-70
2022/05/30 09:33:33;;;;;;;7.22;1.27;;;15.70;99.90;;;;;;5079522;28;20077;-69
2022/05/30 09:36:24;;;;;;;4.45;1.10;;;15.70;99.90;;;;;;5069468;28;20461;-69
2022/05/30 09:39:00;;;;;;;4.68;1.35;;;15.60;99.90;;;;;;5081862;28;20085;-69
2022/05/30 09:41:31;;;;;;;3.90;1.15;;;15.50;99.90;;;;;;5075996;28;20036;-69
2022/05/30 09:44:03;;;;;;;3.08;1.08;;;15.40;99.90;;;;;;5087994;28;20161;-69
2022/05/30 09:46:42;;;;;;;4.22;1.15;;;15.30;99.90;;;;;;5079782;28;20027;-69
2022/05/30 09:49:15;;;;;;;3.78;1.00;;;15.50;99.90;;;;;;5083136;28;20082;-69
2022/05/30 09:51:41;;;;;;;4.68;1.10;;;15.60;99.90;;;;;;5064735;28;20040;-69
2022/05/30 09:54:10;;;;;;;3.15;0.98;;;15.70;99.90;;;;;;5089009;28;20038;-69
2022/05/30 09:56:44;;;;;;;6.65;1.00;;;15.80;99.90;;;;;;5079381;28;20028;-68
2022/05/30 09:59:29;;;;;;;4.05;1.13;;;15.90;99.90;;;;;;5088626;28;20036;-68
2022/05/30 10:01:55;;;;;;;8.48;0.93;;;15.90;99.90;;;;;;5061360;28;20033;-69
2022/05/30 10:04:42;;;;;;;4.45;0.95;;;16.20;99.90;;;;;;5054845;28;20060;-69
2022/05/30 10:07:19;;;;;;;3.90;0.90;;;16.30;99.90;;;;;;5072589;28;20679;-69
2022/05/30 10:09:51;;;;;;;3.55;1.02;;;16.40;99.90;;;;;;5071875;28;20029;-69
2022/05/30 10:12:33;;;;;;;2.33;0.90;;;16.60;99.90;;;;;;5058517;28;20448;-69
2022/05/30 10:14:59;;;;;;;4.97;1.03;;;16.90;99.90;;;;;;5053611;28;20041;-69
2022/05/30 10:17:33;;;;;;;2.83;0.93;;;16.80;99.90;;;;;;5066454;28;20472;-69
2022/05/30 10:20:12;;;;;;;4.30;1.30;;;17.20;99.70;;;;;;5055013;28;20039;-69
2022/05/30 10:29:08;;;;;;;4.72;1.20;;;17.80;98.20;;;;;;5060238;28;20761;-70
2022/05/30 10:31:55;;;;;;;2.63;1.02;;;18.20;95.80;;;;;;5063001;28;20028;-69
2022/05/30 10:34:55;;;;;;;3.53;1.10;;;18.30;95.30;;;;;;5053863;28;20029;-70
2022/05/30 10:37:29;;;;;;;5.22;1.30;;;18.40;95.30;;;;;;5052702;28;20043;-69
2022/05/30 10:40:17;;;;;;;9.40;1.45;;;18.30;97.90;;;;;;5053145;28;20056;-70
2022/05/30 10:42:49;;;;;;;3.65;1.30;;;18.40;97.50;;;;;;5049665;28;20041;-69
2022/05/30 10:45:22;;;;;;;5.07;1.10;;;18.40;96.70;;;;;;5069047;28;20072;-70
2022/05/30 10:47:50;;;;;;;5.60;0.95;;;18.10;97.50;;;;;;5063349;28;20033;-70
2022/05/30 10:50:52;;;;;;;2.70;0.93;;;17.90;96.40;;;;;;5053214;28;20076;-70
2022/05/30 10:53:34;;;;;;;3.08;1.35;;;17.70;98.60;;;;;;5073093;28;20068;-70
2022/05/30 10:56:08;;;;;;;4.97;1.02;;;17.40;96.70;;;;;;5072053;28;20028;-69
2022/05/30 10:58:57;;;;;;;4.28;1.50;;;17.40;96.40;;;;;;5088183;28;20044;-69
2022/05/30 11:01:53;;;;;;;6.45;1.20;;;17.40;96.70;;;;;;5060652;28;20048;-69
2022/05/30 11:04:41;;;;;;;4.72;1.20;;;17.20;99.60;;;;;;5053080;28;20029;-69
2022/05/30 11:07:30;;;;;;;5.45;1.42;;;17.20;99.10;;;;;;5052697;28;20457;-69
2022/05/30 11:10:04;;;;;;;2.53;1.20;;;17.10;98.90;;;;;;5052463;28;20041;-69
2022/05/30 11:12:38;;;;;;;2.17;1.08;;;17.00;96.40;;;;;;5052779;28;20087;-69
2022/05/30 11:15:16;;;;;;;2.28;1.38;;;17.00;96.50;;;;;;5053040;28;20033;-69
2022/05/30 11:17:46;;;;;;;2.22;0.90;;;17.00;98.20;;;;;;5052556;28;20033;-69
2022/05/30 11:20:23;;;;;;;3.83;1.08;;;17.10;96.60;;;;;;5068351;28;20045;-69
2022/05/30 11:22:52;;;;;;;3.35;1.30;;;17.30;95.00;;;;;;5052276;28;20033;-69
2022/05/30 11:25:52;;;;;;;4.57;1.33;;;17.70;95.20;;;;;;5053042;28;20025;-69
2022/05/30 11:28:38;;;;;;;3.45;1.42;;;18.20;95.80;;;;;;5072807;28;20036;-69
2022/05/30 11:31:20;;;;;;;2.15;1.10;;;18.70;94.20;;;;;;5071413;28;20072;-70
2022/05/30 11:33:54;;;;;;;4.43;1.70;;;19.00;93.20;;;;;;5052612;28;20057;-69
2022/05/30 11:36:38;;;;;;;5.22;1.42;;;19.30;94.10;;;;;;5052244;28;20071;-70
2022/05/30 11:39:14;;;;;;;6.10;1.80;;;19.30;92.30;;;;;;5052437;28;20041;-70
2022/05/30 11:42:08;;;;;;;4.45;1.48;;;19.10;94.00;;;;;;5058994;28;20032;-69
2022/05/30 11:44:51;;;;;;;2.38;1.10;;;19.60;93.70;;;;;;5061593;28;20071;-69
2022/05/30 11:47:34;;;;;;;7.93;1.52;;;19.70;93.80;;;;;;5059945;28;20553;-69
2022/05/30 11:50:22;;;;;;;4.32;1.45;;;19.40;92.40;;;;;;5066885;28;20082;-69
2022/05/30 11:53:24;;;;;;;4.40;1.30;;;19.40;92.80;;;;;;5070458;28;20381;-69
2022/05/30 11:55:59;;;;;;;2.97;1.15;;;19.30;92.40;;;;;;5071572;28;20044;-69
2022/05/30 11:59:02;;;;;;;3.95;1.38;;;19.30;92.60;;;;;;5071472;28;20028;-69
2022/05/30 12:01:30;;;;;;;5.18;1.95;;;19.40;92.70;;;;;;5062436;28;20468;-69
2022/05/30 12:04:25;;;;;;;1.48;1.15;;;19.50;91.10;;;;;;5070258;28;20033;-69
2022/05/30 12:07:00;;;;;;;3.97;1.73;;;19.50;93.40;;;;;;5070447;28;20033;-69
2022/05/30 12:09:45;;;;;;;4.57;1.55;;;19.20;90.60;;;;;;5070547;28;20040;-69
2022/05/30 12:12:42;;;;;;;2.15;1.27;;;19.10;91.90;;;;;;5070688;28;20024;-69
2022/05/30 12:15:25;;;;;;;3.28;1.45;;;19.30;93.50;;;;;;5068978;28;20090;-70
2022/05/30 12:24:07;;;;;;;3.50;1.33;;;19.70;91.00;;;;;;5058923;28;20055;-69
2022/05/30 12:27:04;;;;;;;4.57;1.38;;;19.40;91.80;;;;;;5071628;28;20028;-69
2022/05/30 12:29:39;;;;;;;4.10;1.42;;;19.20;92.10;;;;;;5052610;28;20049;-69
2022/05/30 12:32:17;;;;;;;5.38;1.33;;;19.10;93.10;;;;;;5071156;28;20044;-69
2022/05/30 12:35:01;;;;;;;3.42;1.17;;;19.00;93.20;;;;;;5055566;28;20459;-69
2022/05/30 12:38:02;;;;;;;3.78;1.52;;;19.00;93.00;;;;;;5055648;28;20029;-70
2022/05/30 12:40:27;;;;;;;4.75;1.85;;;18.90;91.70;;;;;;5060825;28;20029;-69
2022/05/30 12:43:23;;;;;;;2.70;1.30;;;18.90;91.80;;;;;;5055199;28;20439;-69
2022/05/30 12:45:55;;;;;;;8.27;1.60;;;18.80;93.20;;;;;;5055881;28;20116;-69
2022/05/30 12:48:53;;;;;;;7.03;1.47;;;18.60;92.20;;;;;;5055098;28;20147;-69
2022/05/30 12:51:31;;;;;;;2.67;1.42;;;18.60;91.00;;;;;;5053668;28;20125;-69
2022/05/30 12:54:00;;;;;;;6.00;1.63;;;18.70;91.70;;;;;;5053997;28;20032;-69
2022/05/30 12:56:43;;;;;;;2.65;1.35;;;18.70;90.90;;;;;;5055430;28;20374;-69
2022/05/30 12:59:11;;;;;;;5.93;1.70;;;18.70;93.10;;;;;;5075437;28;20028;-69
2022/05/30 13:01:43;;;;;;;3.33;1.20;;;18.90;93.30;;;;;;5073413;28;20174;-69
2022/05/30 13:04:25;;;;;;;3.57;1.97;;;19.00;93.90;;;;;;5055147;28;20033;-69
2022/05/30 13:06:56;;;;;;;6.15;1.23;;;19.00;93.70;;;;;;5055111;28;20374;-69
2022/05/30 13:09:35;;;;;;;3.90;1.37;;;19.00;91.50;;;;;;5053646;28;20033;-69
2022/05/30 13:12:04;;;;;;;3.92;1.50;;;19.10;92.30;;;;;;5056282;28;20025;-70
2022/05/30 13:14:55;;;;;;;2.47;1.25;;;18.80;92.40;;;;;;5055142;28;20501;-69
2022/05/30 13:17:22;;;;;;;6.80;1.45;;;18.70;92.40;;;;;;5054978;28;20063;-69
2022/05/30 13:19:54;;;;;;;6.25;1.52;;;18.70;92.30;;;;;;5054855;28;20116;-69
2022/05/30 13:22:30;;;;;;;4.43;1.25;;;18.60;92.90;;;;;;5054442;28;20247;-69
2022/05/30 13:24:57;;;;;;;4.72;1.52;;;18.70;92.40;;;;;;5054246;28;20469;-69
2022/05/30 13:27:25;;;;;;;3.78;1.45;;;18.60;90.90;;;;;;5054834;28;20078;-69
2022/05/30 13:29:51;;;;;;;1.40;1.30;;;18.70;91.80;;;;;;5068054;28;20051;-69
2022/05/30 13:32:20;;;;;;;5.15;2.00;;;18.70;91.70;;;;;;5066862;28;20029;-69
2022/05/30 13:34:49;;;;;;;2.85;1.70;;;18.50;91.90;;;;;;5053408;28;20036;-69